Time;durP1;ratioP1;P1;durP2;ratioP2;P2;SDS_P1;SDS_P2;PMS_P1;PMS_P2;Temp;Humidity;BMP_temperature;BMP_pressure;BME280_temperature;BME280_humidity;BME280_pressure;Samples;Min_cycle;Max_cycle;Signal;HPM_P1;HPM_P2
2022/04/16 00:02:37;;;;;;;341.37;68.73;;;9.30;1.00;;;;;;4980635;28;20542;-80
2022/04/16 00:05:15;;;;;;;440.67;80.53;;;;;;;;;;4994925;28;20384;-80
2022/04/16 00:08:14;;;;;;;72.90;17.33;;;9.40;1.00;;;;;;4994849;28;20580;-81
2022/04/16 00:20:49;;;;;;;194.97;47.23;;;9.60;1.00;;;;;;4994777;28;20962;-80
2022/04/16 00:23:15;;;;;;;18.10;12.00;;;;;;;;;;4994509;28;20434;-80
2022/04/16 00:26:14;;;;;;;10.33;8.00;;;9.70;1.00;;;;;;4994661;28;20453;-80
2022/04/16 00:35:24;;;;;;;284.77;57.60;;;;;;;;;;4994281;28;20917;-80
2022/04/16 00:41:12;;;;;;;473.47;84.30;;;10.20;1.00;;;;;;4994300;28;20534;-81
2022/04/16 00:47:26;;;;;;;573.00;111.22;;;10.40;1.00;;;;;;4994342;28;20228;-80
2022/04/16 00:53:13;;;;;;;178.40;34.37;;;10.50;1.00;;;;;;4994179;28;20382;-81
2022/04/16 00:55:58;;;;;;;510.23;94.27;;;10.50;1.00;;;;;;4994137;28;20502;-80
2022/04/16 01:01:27;;;;;;;6.00;3.47;;;10.60;1.00;;;;;;4979274;28;20459;-81
2022/04/16 01:03:53;;;;;;;5.23;4.17;;;;;;;;;;4993804;28;20726;-80
2022/04/16 01:13:15;;;;;;;12.33;5.00;;;;;;;;;;4993984;28;20413;-82
2022/04/16 01:19:07;;;;;;;4.37;3.70;;;10.70;1.00;;;;;;4993971;28;20410;-82
2022/04/16 01:24:55;;;;;;;8.00;4.00;;;;;;;;;;4993748;28;20368;-82
2022/04/16 01:30:58;;;;;;;7.93;4.40;;;;;;;;;;4993975;28;20482;-82
2022/04/16 01:33:39;;;;;;;5.23;4.20;;;;;;;;;;4993760;28;20544;-83
2022/04/16 01:39:45;;;;;;;4.90;4.20;;;;;;;;;;4993940;28;20376;-82
2022/04/16 01:45:33;;;;;;;6.90;5.00;;;;;;;;;;4993640;28;20359;-83
2022/04/16 01:48:27;;;;;;;8.73;5.17;;;11.00;1.00;;;;;;4993586;28;20449;-82
2022/04/16 01:54:15;;;;;;;9.17;5.87;;;;;;;;;;4974811;28;20404;-82
2022/04/16 02:04:14;;;;;;;8.50;6.20;;;11.00;1.00;;;;;;4994594;28;20438;-82
2022/04/16 02:10:02;;;;;;;8.60;5.87;;;11.00;1.00;;;;;;4996532;28;20463;-80
2022/04/16 02:12:28;;;;;;;8.00;6.07;;;;;;;;;;4996658;28;20518;-81
2022/04/16 02:14:54;;;;;;;9.77;6.70;;;;;;;;;;4996605;28;20436;-80
2022/04/16 02:21:10;;;;;;;10.90;6.37;;;10.90;1.00;;;;;;4996347;28;20404;-80
2022/04/16 02:23:57;;;;;;;11.47;6.37;;;11.00;1.00;;;;;;4996591;28;20421;-81
2022/04/16 02:39:57;;;;;;;9.60;6.33;;;;;;;;;;4996266;28;20486;-82
2022/04/16 02:43:14;;;;;;;8.00;5.73;;;11.00;1.00;;;;;;4996565;28;20916;-82
2022/04/16 02:49:01;;;;;;;9.33;6.60;;;11.10;1.00;;;;;;4996102;28;20406;-83
2022/04/16 03:05:08;;;;;;;8.47;6.20;;;11.10;1.00;;;;;;4995649;28;20403;-80
2022/04/16 03:08:12;;;;;;;11.10;6.47;;;11.10;1.00;;;;;;4996068;28;20391;-80
2022/04/16 03:23:10;;;;;;;11.73;7.27;;;11.10;1.00;;;;;;4996076;28;20392;-82
2022/04/16 03:32:19;;;;;;;11.13;6.90;;;;;;;;;;4995747;28;20428;-82
2022/04/16 03:38:50;;;;;;;9.93;6.27;;;11.10;1.00;;;;;;4995195;28;20398;-81
2022/04/16 03:47:42;;;;;;;9.90;7.00;;;11.10;1.00;;;;;;4994592;28;20445;-81
2022/04/16 04:06:59;;;;;;;12.57;6.70;;;;;;;;;;4994926;28;20370;-83
2022/04/16 04:16:08;;;;;;;10.23;6.60;;;10.80;1.00;;;;;;4986744;28;20464;-81
2022/04/16 04:22:37;;;;;;;11.17;6.83;;;10.80;1.00;;;;;;4994418;28;20224;-80
2022/04/16 04:28:25;;;;;;;12.37;7.50;;;;;;;;;;4994696;28;20389;-83
2022/04/16 04:30:51;;;;;;;12.23;6.43;;;;;;;;;;4994568;28;20396;-83
2022/04/16 04:46:44;;;;;;;9.57;5.23;;;10.80;1.00;;;;;;4994501;28;20363;-80
2022/04/16 04:49:13;;;;;;;12.70;5.97;;;;;;;;;;4994016;28;20763;-80
2022/04/16 04:52:08;;;;;;;11.30;5.97;;;10.90;1.00;;;;;;4994538;28;20185;-80
2022/04/16 04:57:56;;;;;;;8.43;5.80;;;10.90;1.00;;;;;;4983689;28;20440;-81
2022/04/16 05:04:32;;;;;;;18.43;7.73;;;10.90;1.00;;;;;;4993754;28;20616;-80
2022/04/16 05:10:20;;;;;;;63.17;18.87;;;;;;;;;;4990461;28;20404;-82
2022/04/16 05:12:46;;;;;;;7.23;5.20;;;;;;;;;;4994102;28;20495;-83
2022/04/16 05:15:11;;;;;;;32.80;12.23;;;10.90;1.00;;;;;;4994185;28;20394;-82
2022/04/16 05:20:59;;;;;;;41.80;11.83;;;;;;;;;;4994049;28;20244;-83
2022/04/16 05:26:47;;;;;;;8.43;5.10;;;;;;;;;;4993882;28;20406;-82
2022/04/16 05:40:12;;;;;;;11.33;5.40;;;11.10;99.90;;;;;;4994951;28;20942;-79
2022/04/16 05:49:20;;;;;;;7.17;4.70;;;11.10;99.90;;;;;;4995300;28;20424;-80
2022/04/16 05:59:00;;;;;;;12.60;6.23;;;;;;;;;;4988309;28;20411;-80
2022/04/16 06:07:50;;;;;;;496.30;82.90;;;11.20;99.90;;;;;;4996936;28;20185;-80
2022/04/16 06:13:20;;;;;;;;;;;11.30;99.90;;;;;;4997295;28;20565;-82
2022/04/16 06:18:48;;;;;;;;;;;11.30;99.90;;;;;;4997410;28;20604;-82
2022/04/16 06:24:17;;;;;;;;;;;11.40;99.90;;;;;;4997090;28;20169;-75
2022/04/16 06:26:45;;;;;;;;;;;11.30;99.90;;;;;;4997562;28;20147;-74
2022/04/16 06:29:20;;;;;;;;;;;;;;;;;;4996963;28;20236;-74
2022/04/16 06:31:50;;;;;;;;;;;11.40;99.90;;;;;;4996010;28;20170;-74
2022/04/16 06:34:23;;;;;;;;;;;11.40;99.90;;;;;;4996885;28;20175;-75
2022/04/16 06:36:56;;;;;;;;;;;11.50;99.90;;;;;;4984819;28;20171;-74
2022/04/16 06:39:22;;;;;;;;;;;11.50;99.90;;;;;;4997008;28;20167;-75
2022/04/16 06:41:50;;;;;;;;;;;11.50;99.90;;;;;;4997173;28;20213;-75
2022/04/16 06:50:38;;;;;;;;;;;11.80;99.90;;;;;;4996055;28;20202;-84
2022/04/16 06:56:07;;;;;;;;;;;12.00;99.90;;;;;;4978152;28;20182;-84
2022/04/16 07:01:38;;;;;;;;;;;;;;;;;;4995939;28;20194;-69
2022/04/16 07:07:08;;;;;;;;;;;12.20;99.90;;;;;;4995076;28;19917;-69
2022/04/16 07:10:08;;;;;;;;;;;12.30;99.90;;;;;;4996490;28;19912;-82
2022/04/16 07:12:34;;;;;;;;;;;12.40;99.90;;;;;;4996138;28;19949;-83
2022/04/16 07:15:00;;;;;;;;;;;12.50;99.90;;;;;;5008249;28;20424;-82
2022/04/16 07:17:25;;;;;;;;;;;12.60;99.90;;;;;;4996336;28;19909;-82
2022/04/16 07:20:08;;;;;;;;;;;12.60;99.90;;;;;;4994961;28;19905;-82
2022/04/16 07:25:37;;;;;;;;;;;12.60;99.90;;;;;;4995733;28;19913;-82
2022/04/16 07:37:51;;;;;;;;;;;13.10;99.90;;;;;;4995957;28;19913;-81
2022/04/16 07:40:16;;;;;;;;;;;13.20;99.90;;;;;;4996243;28;19905;-74
2022/04/16 07:43:03;;;;;;;;;;;13.50;99.90;;;;;;4996184;28;19924;-77
2022/04/16 07:45:29;;;;;;;;;;;13.60;99.90;;;;;;4995411;28;19912;-71
2022/04/16 07:47:55;;;;;;;;;;;;;;;;;;4995756;28;19909;-72
2022/04/16 07:50:26;;;;;;;;;;;13.90;99.90;;;;;;4995371;28;19906;-72
2022/04/16 07:52:56;;;;;;;;;;;14.00;99.90;;;;;;4995736;28;19910;-72
2022/04/16 07:58:33;;;;;;;;;;;14.10;99.90;;;;;;4976234;28;19913;-82
2022/04/16 08:04:08;;;;;;;;;;;14.10;99.90;;;;;;4978239;28;20317;-75
2022/04/16 08:07:08;;;;;;;;;;;14.20;99.90;;;;;;4980755;28;19920;-75
2022/04/16 08:10:08;;;;;;;;;;;14.10;99.90;;;;;;4985198;28;19910;-74
2022/04/16 08:12:34;;;;;;;;;;;;;;;;;;4994922;28;19964;-70
2022/04/16 08:14:59;;;;;;;;;;;14.00;99.90;;;;;;4994713;28;19909;-70
2022/04/16 08:17:26;;;;;;;;;;;;;;;;;;4995246;28;19905;-72
2022/04/16 08:19:52;;;;;;;;;;;14.00;99.90;;;;;;4994576;28;20365;-70
2022/04/16 08:22:21;;;;;;;;;;;14.20;99.90;;;;;;4994996;28;19914;-71
2022/04/16 08:27:32;;;;;;;;;;;14.50;99.90;;;;;;4989161;28;20408;-70
2022/04/16 08:29:57;;;;;;;;;;;14.70;99.90;;;;;;4994592;28;19941;-70
2022/04/16 08:32:23;;;;;;;;;;;14.90;99.90;;;;;;4994538;28;19963;-70
2022/04/16 08:34:49;;;;;;;;;;;;;;;;;;4993325;28;19997;-70
2022/04/16 08:37:16;;;;;;;;;;;;;;;;;;4993414;28;19909;-70
2022/04/16 08:39:42;;;;;;;;;;;;;;;;;;4992156;28;19910;-70
2022/04/16 08:42:08;;;;;;;;;;;14.60;99.90;;;;;;4994501;28;19913;-73
2022/04/16 08:44:35;;;;;;;;;;;14.70;99.90;;;;;;4993650;28;19918;-73
2022/04/16 08:47:03;;;;;;;;;;;14.60;99.90;;;;;;4994911;28;19906;-74
2022/04/16 08:49:33;;;;;;;;;;;14.60;99.90;;;;;;4993829;28;19917;-74
2022/04/16 08:51:59;;;;;;;;;;;;;;;;;;4994502;28;19906;-73
2022/04/16 08:54:25;;;;;;;;;;;14.80;99.90;;;;;;4987209;28;19913;-74
2022/04/16 08:57:26;;;;;;;;;;;14.70;99.90;;;;;;4994393;28;19912;-80
2022/04/16 08:59:52;;;;;;;;;;;14.50;99.90;;;;;;4993710;28;19910;-80
2022/04/16 09:02:19;;;;;;;;;;;;;;;;;;4991451;28;19925;-81
2022/04/16 09:04:45;;;;;;;;;;;14.90;99.90;;;;;;4993492;28;19964;-80
2022/04/16 09:07:11;;;;;;;;;;;15.00;99.90;;;;;;4993061;28;19914;-80
2022/04/16 09:09:38;;;;;;;;;;;15.20;99.90;;;;;;4993738;28;20357;-81
2022/04/16 09:12:04;;;;;;;;;;;;;;;;;;4995390;28;20000;-80
2022/04/16 09:18:02;;;;;;;;;;;15.20;99.90;;;;;;4998085;28;19935;-80
2022/04/16 09:20:50;;;;;;;;;;;15.00;99.90;;;;;;4998051;28;19914;-80
2022/04/16 09:23:33;;;;;;;;;;;14.90;99.90;;;;;;4997118;28;19910;-80
2022/04/16 09:26:08;;;;;;;;;;;14.70;99.90;;;;;;4998294;28;19905;-80
2022/04/16 09:28:56;;;;;;;;;;;14.50;99.90;;;;;;4997226;28;19905;-79
2022/04/16 09:34:25;;;;;;;;;;;14.60;99.90;;;;;;4997547;28;20019;-81
2022/04/16 09:36:56;;;;;;;;;;;14.60;99.90;;;;;;4998061;28;20380;-81
2022/04/16 09:39:50;;;;;;;;;;;14.40;99.90;;;;;;4997992;28;19992;-81
2022/04/16 09:42:50;;;;;;;;;;;14.30;99.90;;;;;;4997369;28;19960;-80
2022/04/16 09:45:20;;;;;;;;;;;14.30;99.90;;;;;;4988070;28;19964;-77
2022/04/16 09:48:02;;;;;;;;;;;14.20;99.90;;;;;;4997781;28;19913;-77
2022/04/16 09:50:32;;;;;;;;;;;14.30;99.90;;;;;;4997414;28;19916;-76
2022/04/16 09:53:09;;;;;;;;;;;14.20;99.90;;;;;;4997141;28;20377;-76
2022/04/16 09:55:50;;;;;;;;;;;;;;;;;;4997792;28;19913;-76
2022/04/16 09:58:44;;;;;;;;;;;14.00;99.90;;;;;;4997687;28;19905;-76
2022/04/16 10:01:16;;;;;;;;;;;;;;;;;;4996116;28;19910;-80
2022/04/16 10:03:51;;;;;;;;;;;14.00;99.90;;;;;;4998018;28;20008;-80
2022/04/16 10:06:17;;;;;;;;;;;14.00;99.90;;;;;;5011971;28;20312;-81
2022/04/16 10:14:30;;;;;;;;;;;14.20;99.90;;;;;;4988095;28;19933;-80
2022/04/16 10:17:07;;;;;;;;;;;14.40;99.90;;;;;;4997229;28;20345;-80
2022/04/16 10:22:38;;;;;;;;;;;;;;;;;;4986533;28;19917;-80
2022/04/16 10:25:08;;;;;;;;;;;14.60;99.90;;;;;;4996282;28;20024;-80
2022/04/16 10:27:44;;;;;;;;;;;14.70;99.90;;;;;;5012416;28;19916;-80
2022/04/16 10:30:11;;;;;;;;;;;14.80;99.90;;;;;;4997247;28;19906;-80
2022/04/16 10:32:39;;;;;;;;;;;14.70;99.90;;;;;;4997110;28;19913;-79
2022/04/16 10:35:38;;;;;;;;;;;14.70;99.90;;;;;;4997003;28;19955;-79
2022/04/16 10:40:58;;;;;;;;;;;14.90;99.90;;;;;;4996589;28;20292;-80
2022/04/16 10:43:50;;;;;;;;;;;14.90;99.90;;;;;;4996621;28;19989;-80
2022/04/16 10:49:22;;;;;;;;;;;15.10;99.90;;;;;;4995299;28;19917;-79
2022/04/16 10:51:52;;;;;;;;;;;15.10;99.90;;;;;;4995450;28;20375;-79
2022/04/16 10:57:03;;;;;;;;;;;15.10;99.90;;;;;;4996471;28;19913;-80
2022/04/16 10:59:39;;;;;;;;;;;15.10;99.90;;;;;;4996893;28;19912;-79
2022/04/16 11:02:26;;;;;;;;;;;15.20;99.90;;;;;;4995047;28;19953;-79
2022/04/16 11:08:32;;;;;;;;;;;15.00;99.90;;;;;;4992067;28;19963;-79
2022/04/16 11:11:32;;;;;;;;;;;15.10;99.90;;;;;;4995683;28;20586;-80
2022/04/16 11:14:03;;;;;;;;;;;15.10;99.90;;;;;;5000010;28;19983;-85
2022/04/16 11:16:41;;;;;;;;;;;15.20;99.90;;;;;;4995456;28;19913;-76
2022/04/16 11:19:17;;;;;;;;;;;15.30;99.90;;;;;;4984547;28;19912;-74
2022/04/16 11:22:02;;;;;;;;;;;15.50;99.90;;;;;;4996230;28;19916;-76
2022/04/16 11:24:44;;;;;;;;;;;15.60;99.90;;;;;;4996064;28;19910;-76
2022/04/16 11:35:34;;;;;;;;;;;;;;;;;;4995737;28;19968;-73
2022/04/16 11:38:02;;;;;;;;;;;15.90;99.90;;;;;;4995505;28;19913;-78
2022/04/16 11:43:58;;;;;;;;;;;15.80;99.90;;;;;;4995360;28;19918;-81
2022/04/16 11:46:41;;;;;;;;;;;15.90;99.90;;;;;;4994510;28;20411;-80
2022/04/16 11:54:48;;;;;;;;;;;;;;;;;;4995328;28;19917;-79
2022/04/16 11:57:21;;;;;;;;;;;16.00;99.90;;;;;;4995601;28;19906;-81
2022/04/16 12:00:08;;;;;;;;;;;16.10;99.90;;;;;;4995753;28;19972;-75
2022/04/16 12:08:28;;;;;;;;;;;;;;;;;;4995408;28;20363;-82
2022/04/16 12:11:14;;;;;;;;;;;16.20;99.90;;;;;;4993928;28;19906;-82
2022/04/16 12:13:44;;;;;;;;;;;16.30;99.90;;;;;;4995100;28;19921;-82
2022/04/16 12:16:38;;;;;;;;;;;16.40;99.90;;;;;;5011028;28;19961;-84
2022/04/16 12:19:38;;;;;;;;;;;16.60;99.90;;;;;;4995191;28;19913;-84
2022/04/16 12:25:10;;;;;;;;;;;16.90;99.90;;;;;;4995464;28;19913;-84
2022/04/16 12:27:42;;;;;;;;;;;16.80;99.90;;;;;;5010701;28;19906;-84
2022/04/16 12:30:08;;;;;;;;;;;16.80;99.90;;;;;;4994474;28;19912;-77
2022/04/16 12:32:39;;;;;;;;;;;16.70;99.90;;;;;;4994846;28;19909;-78
2022/04/16 12:35:14;;;;;;;;;;;16.70;99.90;;;;;;4995041;28;19906;-77
2022/04/16 12:37:40;;;;;;;;;;;16.70;99.90;;;;;;4994202;28;19909;-83
2022/04/16 12:40:06;;;;;;;;;;;16.80;99.90;;;;;;4986084;28;20010;-73
2022/04/16 12:43:02;;;;;;;;;;;16.90;99.90;;;;;;4989463;28;20358;-78
2022/04/16 12:45:30;;;;;;;;;;;16.80;99.90;;;;;;4975691;28;19906;-74
2022/04/16 12:48:03;;;;;;;;;;;16.90;99.90;;;;;;4974906;28;19913;-75
2022/04/16 12:50:33;;;;;;;;;;;16.90;99.90;;;;;;4987886;28;19945;-75
2022/04/16 12:53:04;;;;;;;;;;;17.00;99.90;;;;;;4981812;28;20328;-76
2022/04/16 12:56:03;;;;;;;;;;;17.00;99.90;;;;;;4994581;28;19913;-76
2022/04/16 13:01:38;;;;;;;;;;;17.20;99.90;;;;;;4995427;28;19913;-82
2022/04/16 13:04:20;;;;;;;;;;;17.30;99.90;;;;;;4994778;28;19996;-82
2022/04/16 13:10:14;;;;;;;;;;;17.30;99.90;;;;;;4974938;28;19913;-78
2022/04/16 13:12:40;;;;;;;;;;;17.30;99.90;;;;;;4983025;28;20383;-78
2022/04/16 13:15:09;;;;;;;;;;;17.50;99.90;;;;;;4994570;28;19910;-78
2022/04/16 13:17:35;;;;;;;;;;;17.60;99.90;;;;;;4994637;28;19960;-78
2022/04/16 13:20:02;;;;;;;;;;;17.50;99.90;;;;;;4994417;28;19906;-79
2022/04/16 13:25:33;;;;;;;;;;;17.30;99.90;;;;;;4974760;28;20285;-78
2022/04/16 13:27:59;;;;;;;;;;;;;;;;;;4983977;28;20258;-80
2022/04/16 13:30:25;;;;;;;;;;;;;;;;;;4993994;28;19913;-80
2022/04/16 13:32:51;;;;;;;;;;;17.40;99.90;;;;;;5000266;28;19917;-80
2022/04/16 13:35:16;;;;;;;;;;;17.60;99.90;;;;;;5008341;28;19909;-84
2022/04/16 13:37:42;;;;;;;;;;;17.60;99.90;;;;;;4993454;28;19980;-82
2022/04/16 13:42:52;;;;;;;;;;;;;;;;;;4993491;28;19961;-81
2022/04/16 13:45:17;;;;;;;;;;;17.70;99.90;;;;;;4993338;28;19906;-82
2022/04/16 13:47:43;;;;;;;808.83;530.47;;;;;;;;;;4992427;28;20452;-80
2022/04/16 13:50:09;;;;;;;882.67;371.20;;;17.70;99.90;;;;;;4992381;28;20262;-79
2022/04/16 13:52:35;;;;;;;;;;;17.60;99.90;;;;;;4992572;28;20937;-79
2022/04/16 13:55:01;;;;;;;;;;;;;;;;;;4991765;28;19914;-79
2022/04/16 13:57:26;;;;;;;;;;;17.50;99.90;;;;;;4993639;28;19917;-77
2022/04/16 13:59:52;;;;;;;;;;;17.60;99.90;;;;;;4994982;28;19918;-85
2022/04/16 14:02:17;;;;;;;;;;;17.70;99.90;;;;;;5011771;28;19922;-76
2022/04/16 14:13:52;;;;;;;;;;;;;;;;;;4977821;28;19964;-78
2022/04/16 14:16:38;;;;;;;;;;;17.70;99.90;;;;;;4978263;28;19918;-79
2022/04/16 14:19:38;;;;;;;;;;;17.80;99.90;;;;;;4992313;28;19910;-77
2022/04/16 14:24:48;;;;;;;;;;;17.90;99.90;;;;;;4996825;28;19920;-77
2022/04/16 14:27:16;;;;;;;;;;;17.90;99.90;;;;;;4996207;28;19913;-77
2022/04/16 14:29:50;;;;;;;;;;;17.90;99.90;;;;;;4996865;28;19914;-76
2022/04/16 14:32:16;;;;;;;;;;;18.10;99.90;;;;;;4999283;28;20308;-82
2022/04/16 14:34:41;;;;;;;;;;;18.20;99.90;;;;;;4995193;28;19914;-82
2022/04/16 14:37:07;;;;;;;;;;;18.30;99.90;;;;;;4996333;28;19910;-83
2022/04/16 14:43:09;;;;;;;;;;;18.10;99.90;;;;;;4996570;28;19999;-83
2022/04/16 14:45:42;;;;;;;;;;;18.10;99.90;;;;;;4995211;28;20372;-77
2022/04/16 14:48:08;;;;;;;;;;;18.00;99.90;;;;;;4996965;28;19917;-69
2022/04/16 14:50:34;;;;;;;;;;;;;;;;;;4996204;28;19921;-69
2022/04/16 14:53:01;;;;;;;;;;;18.80;99.90;;;;;;4996176;28;20277;-69
2022/04/16 14:55:27;;;;;;;;;;;20.00;99.90;;;;;;4995780;28;20353;-69
2022/04/16 14:57:53;;;;;;;;;;;21.20;99.90;;;;;;4996184;28;19968;-69
2022/04/16 15:00:18;;;;;;;;;;;22.70;99.90;;;;;;4995925;28;19960;-70
2022/04/16 15:02:44;;;;;;;;;;;23.30;99.90;;;;;;4996075;28;19918;-70
2022/04/16 15:05:10;;;;;;;;;;;23.90;99.90;;;;;;4996163;28;20349;-69
2022/04/16 15:07:36;;;;;;;;;;;24.50;99.90;;;;;;4996375;28;20365;-69
2022/04/16 15:10:02;;;;;;;;;;;25.40;99.90;;;;;;4995641;28;19914;-69
2022/04/16 15:12:27;;;;;;;;;;;25.60;99.90;;;;;;5001299;28;19960;-70
2022/04/16 15:15:02;;;;;;;;;;;26.50;99.90;;;;;;4996605;28;19972;-77
2022/04/16 15:17:40;;;;;;;;;;;26.80;99.90;;;;;;4995891;28;19985;-80
2022/04/16 15:20:08;;;;;;;;;;;27.50;99.90;;;;;;4990686;28;20425;-79
2022/04/16 15:26:02;;;;;;;;;;;27.60;99.90;;;;;;4995310;28;19921;-80
2022/04/16 15:28:28;;;;;;;;;;;29.10;99.90;;;;;;4995933;28;19916;-80
2022/04/16 15:30:58;;;;;;;;;;;29.10;99.90;;;;;;4995671;28;19917;-80
2022/04/16 15:33:38;;;;;;;;;;;29.30;99.90;;;;;;4996404;28;19964;-81
2022/04/16 15:36:08;;;;;;;;;;;30.00;99.90;;;;;;4995757;28;19913;-80
2022/04/16 15:38:34;;;;;;;;;;;30.80;99.90;;;;;;4995382;28;19916;-80
2022/04/16 15:41:08;;;;;;;;;;;31.00;99.90;;;;;;4995631;28;19914;-80
2022/04/16 15:43:44;;;;;;;;;;;30.50;99.90;;;;;;4995610;28;20000;-79
2022/04/16 15:46:10;;;;;;;;;;;30.40;99.90;;;;;;4995392;28;19910;-80
2022/04/16 15:48:44;;;;;;;;;;;30.30;99.90;;;;;;4994831;28;19921;-80
2022/04/16 15:51:10;;;;;;;;;;;30.30;99.90;;;;;;4995068;28;19917;-82
2022/04/16 15:53:40;;;;;;;;;;;30.60;99.90;;;;;;4995518;28;20285;-81
2022/04/16 15:56:38;;;;;;;;;;;31.10;99.90;;;;;;4994288;28;19910;-84
2022/04/16 15:59:38;;;;;;;;;;;31.50;99.90;;;;;;4994277;28;19953;-86
2022/04/16 16:02:38;;;;;;;;;;;31.30;99.90;;;;;;4994215;28;19910;-83
2022/04/16 16:05:09;;;;;;;;;;;30.60;99.90;;;;;;4992136;28;19909;-78
2022/04/16 16:07:39;;;;;;;;;;;31.30;99.90;;;;;;4994325;28;20278;-78
2022/04/16 16:13:08;;;;;;;;;;;31.20;99.90;;;;;;4994972;28;19972;-78
2022/04/16 16:15:33;;;;;;;;;;;32.10;99.90;;;;;;4994467;28;19961;-71
2022/04/16 16:17:59;;;;;;;;;;;32.00;99.90;;;;;;4994783;28;20361;-73
2022/04/16 16:20:39;;;;;;;;;;;31.70;99.90;;;;;;4995184;28;19936;-74
2022/04/16 16:23:05;;;;;;;;;;;31.60;99.90;;;;;;4993505;28;19914;-74
2022/04/16 16:25:34;;;;;;;;;;;32.00;99.90;;;;;;4994249;28;20273;-74
2022/04/16 16:28:02;;;;;;;;;;;32.00;99.90;;;;;;4994802;28;19986;-74
2022/04/16 16:30:29;;;;;;;;;;;31.90;99.90;;;;;;4994877;28;19936;-74
2022/04/16 16:33:04;;;;;;;;;;;32.20;99.90;;;;;;4994213;28;19917;-74
2022/04/16 16:35:30;;;;;;;;;;;32.00;99.90;;;;;;4995162;28;20376;-74
2022/04/16 16:37:57;;;;;;;;;;;31.70;99.90;;;;;;4993070;28;20008;-74
2022/04/16 16:40:26;;;;;;;;;;;31.70;99.90;;;;;;4994605;28;19918;-74
2022/04/16 16:42:52;;;;;;;;;;;31.80;99.90;;;;;;4994569;28;19910;-73
2022/04/16 16:45:18;;;;;;;;;;;32.30;99.90;;;;;;4994304;28;19922;-71
2022/04/16 16:47:44;;;;;;;;;;;32.20;99.90;;;;;;4994515;28;19921;-71
2022/04/16 16:50:10;;;;;;;;;;;;;;;;;;4994612;28;19910;-71
2022/04/16 16:52:36;;;;;;;;;;;31.00;99.90;;;;;;4994225;28;19932;-73
2022/04/16 16:55:02;;;;;;;;;;;29.90;99.90;;;;;;4993927;28;19972;-70
2022/04/16 16:57:28;;;;;;;;;;;29.20;99.90;;;;;;4994315;28;19914;-70
2022/04/16 16:59:53;;;;;;;;;;;27.50;99.90;;;;;;4994525;28;19953;-71
2022/04/16 17:05:04;;;;;;;;;;;26.80;99.90;;;;;;4994680;28;20305;-70
2022/04/16 17:07:33;;;;;;;;;;;26.70;99.90;;;;;;4994288;28;19953;-70
2022/04/16 17:09:58;;;;;;;;;;;26.50;99.90;;;;;;4994369;28;19914;-70
2022/04/16 17:12:25;;;;;;;;;;;26.30;99.90;;;;;;4997514;28;19917;-73
2022/04/16 17:20:53;;;;;;;;;;;22.90;99.90;;;;;;4994655;28;19920;-71
2022/04/16 17:23:19;;;;;;;;;;;;;;;;;;4994262;28;19917;-72
2022/04/16 17:25:44;;;;;;;;;;;21.10;99.90;;;;;;4993328;28;19985;-71
2022/04/16 17:28:10;;;;;;;;;;;20.10;99.90;;;;;;4994178;28;20015;-71
2022/04/16 17:30:36;;;;;;;;;;;;;;;;;;4993903;28;20004;-71
2022/04/16 17:33:01;;;;;;;;;;;18.80;99.90;;;;;;4992643;28;19972;-71
2022/04/16 17:35:27;;;;;;;;;;;18.10;99.90;;;;;;4998018;28;19914;-71
2022/04/16 17:37:56;;;;;;;;;;;17.50;99.90;;;;;;4997091;28;20463;-71
2022/04/16 17:40:27;;;;;;;;;;;16.90;99.90;;;;;;4995035;28;20289;-70
2022/04/16 17:42:57;;;;;;;;;;;;;;;;;;4997467;28;19913;-71
2022/04/16 17:45:33;;;;;;;;;;;16.20;99.90;;;;;;4993797;28;19913;-71
2022/04/16 17:48:08;;;;;;;;;;;15.80;99.90;;;;;;4997496;28;19914;-71
2022/04/16 17:50:35;;;;;;;;;;;;;;;;;;4978852;28;19910;-71
2022/04/16 17:53:00;;;;;;;;;;;15.20;99.90;;;;;;4991259;28;19914;-71
2022/04/16 17:55:26;;;;;;;;;;;;;;;;;;4997830;28;20365;-71
2022/04/16 17:57:52;;;;;;;;;;;14.80;99.90;;;;;;4997811;28;19952;-71
2022/04/16 18:00:18;;;;;;;;;;;14.60;99.90;;;;;;4997755;28;19950;-71
2022/04/16 18:02:44;;;;;;;;;;;;;;;;;;4996198;28;20371;-70
2022/04/16 18:05:27;;;;;;;;;;;14.20;99.90;;;;;;4997982;28;19921;-73
2022/04/16 18:07:56;;;;;;;;;;;14.00;99.90;;;;;;4997823;28;20238;-73
2022/04/16 18:10:27;;;;;;;;;;;13.90;99.90;;;;;;4997513;28;19956;-73
2022/04/16 18:12:53;;;;;;;;;;;13.60;99.90;;;;;;4997360;28;19918;-74
2022/04/16 18:15:38;;;;;;;;;;;13.50;99.90;;;;;;4997596;28;19928;-78
2022/04/16 18:18:08;;;;;;;;;;;13.30;99.90;;;;;;4993356;28;19964;-76
2022/04/16 18:23:50;;;;;;;;;;;12.90;99.90;;;;;;4977704;28;20392;-78
2022/04/16 18:26:50;;;;;;;;;;;12.70;99.90;;;;;;4995940;28;19909;-77
2022/04/16 18:29:21;;;;;;;;;;;12.50;99.90;;;;;;4997320;28;19984;-74
2022/04/16 18:31:50;;;;;;;;;;;12.30;99.90;;;;;;4996010;28;20320;-76
2022/04/16 18:34:18;;;;;;;;;;;;;;;;;;4997163;28;19995;-75
2022/04/16 18:37:02;;;;;;;;;;;12.00;99.90;;;;;;4997264;28;19910;-75
2022/04/16 18:39:39;;;;;;;;;;;11.80;99.90;;;;;;4984574;28;19910;-76
2022/04/16 18:42:05;;;;;;;;;;;11.70;99.90;;;;;;4997321;28;19960;-78
2022/04/16 18:44:52;;;;;;;;;;;11.60;99.90;;;;;;4996516;28;20000;-78
2022/04/16 18:47:26;;;;;;;;;;;11.40;99.90;;;;;;4997009;28;19960;-77
2022/04/16 18:50:09;;;;;;;;;;;11.20;99.90;;;;;;4996981;28;19917;-78
2022/04/16 18:55:38;;;;;;;;;;;10.90;99.90;;;;;;4996964;28;20005;-79
2022/04/16 18:58:08;;;;;;;;;;;10.80;99.90;;;;;;4996607;28;20369;-78
2022/04/16 19:09:08;;;;;;;;;;;10.20;99.90;;;;;;4993448;28;20000;-77
2022/04/16 19:11:38;;;;;;;;;;;;;;;;;;4982507;28;19917;-77
2022/04/16 19:14:09;;;;;;;;;;;10.00;99.90;;;;;;4987883;28;19969;-76
2022/04/16 19:19:41;;;;;;;;;;;9.80;99.90;;;;;;4994101;28;19916;-77
2022/04/16 19:22:22;;;;;;;;;;;9.80;99.90;;;;;;4989828;28;20297;-75
2022/04/16 19:25:02;;;;;;;;;;;9.60;99.90;;;;;;4987915;28;20348;-75
2022/04/16 19:27:32;;;;;;;;;;;;;;;;;;4974938;28;19910;-73
2022/04/16 19:30:09;;;;;;;;;;;9.50;99.90;;;;;;4993946;28;20008;-75
2022/04/16 19:32:39;;;;;;;;;;;9.40;99.90;;;;;;4993784;28;19918;-76
2022/04/16 19:35:08;;;;;;;;;;;9.30;99.90;;;;;;4994103;28;19910;-77
2022/04/16 19:37:38;;;;;;;;;;;9.30;99.90;;;;;;4994948;28;19917;-77
2022/04/16 19:40:08;;;;;;;;;;;9.30;99.90;;;;;;4995847;28;19916;-77
2022/04/16 19:42:39;;;;;;;;;;;9.20;99.90;;;;;;4995735;28;19910;-77
2022/04/16 19:45:08;;;;;;;;;;;9.10;99.90;;;;;;4984898;28;19920;-78
2022/04/16 19:47:38;;;;;;;;;;;9.00;99.90;;;;;;4995642;28;19960;-77
2022/04/16 19:50:09;;;;;;;;;;;9.00;99.90;;;;;;4994873;28;19921;-77
2022/04/16 19:52:38;;;;;;;;;;;9.00;99.90;;;;;;5010827;28;19914;-78
2022/04/16 19:55:08;;;;;;;;;;;8.90;99.90;;;;;;4995616;28;19914;-78
2022/04/16 19:57:38;;;;;;;;;;;8.90;99.90;;;;;;4994606;28;19959;-78
2022/04/16 20:00:09;;;;;;;;;;;8.90;99.90;;;;;;4995381;28;19913;-78
2022/04/16 20:05:39;;;;;;;;;;;8.80;99.90;;;;;;4995578;28;19910;-78
2022/04/16 20:13:56;;;;;;;;;;;8.70;99.90;;;;;;4995141;28;19940;-78
2022/04/16 20:16:38;;;;;;;;;;;8.70;99.90;;;;;;4995431;28;19917;-78
2022/04/16 20:19:10;;;;;;;;;;;8.70;99.90;;;;;;4975948;28;19914;-80
2022/04/16 20:21:39;;;;;;;;;;;8.80;99.90;;;;;;4976345;28;19977;-78
2022/04/16 20:24:08;;;;;;;;;;;8.70;99.90;;;;;;4974548;28;20263;-78
2022/04/16 20:26:39;;;;;;;;;;;8.80;99.90;;;;;;4990974;28;19920;-78
2022/04/16 20:29:17;;;;;;;;;;;8.80;99.90;;;;;;4995085;28;19970;-79
2022/04/16 20:32:08;;;;;;;;;;;8.80;99.90;;;;;;4994566;28;20074;-78
2022/04/16 20:34:38;;;;;;;;;;;8.80;99.90;;;;;;4995151;28;19961;-78
2022/04/16 20:37:08;;;;;;;;;;;8.80;99.90;;;;;;4982891;28;19914;-77
2022/04/16 20:45:23;;;;;;;;;;;8.70;99.90;;;;;;4994515;28;19921;-77
2022/04/16 20:48:15;;;;;;;;;;;8.60;99.90;;;;;;4994724;28;19914;-77
2022/04/16 21:02:45;;;;;;;;;;;8.40;99.90;;;;;;4994393;28;20440;-77
2022/04/16 21:05:10;;;;;;;;;;;8.30;99.90;;;;;;4986423;28;19921;-77
2022/04/16 21:07:51;;;;;;;;;;;8.30;99.90;;;;;;4995100;28;20326;-77
2022/04/16 21:10:21;;;;;;;;;;;8.20;99.90;;;;;;4999062;28;19939;-77
2022/04/16 21:12:47;;;;;;;;;;;8.20;99.90;;;;;;4998418;28;19918;-77
2022/04/16 21:15:12;;;;;;;;;;;8.10;99.90;;;;;;5013680;28;20433;-77
2022/04/16 21:20:51;;;;;;;;;;;8.10;99.90;;;;;;4998369;28;19917;-77
2022/04/16 21:23:50;;;;;;;;;;;8.00;99.90;;;;;;4998963;28;19910;-78
2022/04/16 21:26:50;;;;;;;;;;;8.00;99.90;;;;;;4979266;28;19910;-78
2022/04/16 21:29:53;;;;;;;;;;;7.90;99.90;;;;;;4984959;28;20004;-79
2022/04/16 21:32:50;;;;;;;;;;;7.80;99.90;;;;;;4998730;28;19918;-79
2022/04/16 21:35:27;;;;;;;;;;;7.70;99.90;;;;;;4998427;28;20325;-79
2022/04/16 21:38:20;;;;;;;;;;;7.70;99.90;;;;;;4998603;28;20397;-78
2022/04/16 21:40:50;;;;;;;;;;;7.60;99.90;;;;;;4998166;28;19945;-78
2022/04/16 21:43:44;;;;;;;;;;;7.60;99.90;;;;;;4998012;28;19910;-78
2022/04/16 21:46:28;;;;;;;;;;;7.50;99.90;;;;;;4998177;28;19914;-80
2022/04/16 21:54:50;;;;;;;;;;;7.20;99.90;;;;;;4997781;28;20297;-78